Aérodrome :
LOGIN :

S'inscrire | Disclaimer

   EN    FR    IT 

 










Légende :    VFR   VFR Marginal   IFR   IFR Intensif   IFR Très Intensif
Visi : 
Plafond : 
>= 8 km
>= 3000ft
5 à 8 km
1000 à 3000 ft
1500m à 5 km
500 à 1000 ft
800 à 1500m
200 à 500 ft
< 800m
< 200 ft
Symboles :   Orages  Brouillard  Fortes neiges  Fortes précipitations  Vent > 20 kt
SIGMETs :   Divers  Orages  Givrage  Turbulence  Onde Orograph.  Cendres Volcan.






- Altitude de l'aérodrome : 1260 ft
- Code IATA : LDE


LFBT - Tarbes / Ossun

DERNIER METAR :
  • 140130Z AUTO 20004KT 150V270 9999 FEW044 BKN074 OVC088 06/04 Q1001 TEMPO 26015G25KT 4000 RA OVC005

METARs EXPIRÉS :
  • 140100Z AUTO 19005KT 9999 BKN080 BKN100 OVC190 06/04 Q1000 TEMPO 26015G25KT 4000 RA OVC005
  • 140030Z AUTO 18005KT 9999 FEW078 SCT088 OVC200 06/03 Q1001 TEMPO 26015G25KT 4000 RA OVC005
  • 140000Z AUTO 18005KT 9999 FEW070 OVC084 06/04 Q1002 BECMG 28010KT
  • 132330Z AUTO 17005KT 9999 BKN068 OVC088 06/04 Q1002 BECMG 28010KT
  • 132300Z AUTO 16006KT 9999 SCT070 OVC080 06/04 Q1003 BECMG 28010KT

TAF TAF LFBT
Valide du 14 à 00h jusqu'au 15 à 00h UTC


132300Z 1400/1424 18003KT 9999 BKN060
BECMG 1400/1402 28010KT
PROB40
TEMPO 1402/1407 26015G25KT 4000 RA OVC005
PROB30
TEMPO 1407/1409 -RA
BECMG 1413/1415 VRB03KT SCT040



MET'MAP, la Météo Aéronautique d'un coup d'oeil ! - Copyright ORBIFLY Décembre 2007 - Disclaimer

ORBIFLY MET'MAP TEAM :

Programmation & Développement : Alexandra Zaïnal
Conception & Développement : Baudouin d'Aumeries
Co-Programmation & Développement : Marc-Olivier Méhu
Soutien technique & logistique : Manuel Goepfert

Contact : metmap@orbifly.com




SOURCES & CREDITS :

   NOAA